sensor_id;sensor_type;location;lat;lon;timestamp;P1;P2;P0
77516;PMS7003;68414;53.946;27.634;2023-08-30T00:00:57;8.666667;7.566667;5.766667
77516;PMS7003;68414;53.946;27.634;2023-08-30T00:01:57;8.016666;7.516667;5.566667
77516;PMS7003;68414;53.946;27.634;2023-08-30T00:02:57;8.216666;7.483333;6.350000
77516;PMS7003;68414;53.946;27.634;2023-08-30T00:03:57;8.400000;7.783333;6.333333
77516;PMS7003;68414;53.946;27.634;2023-08-30T00:04:59;8.800000;8.800000;6.350000
77516;PMS7003;68414;53.946;27.634;2023-08-30T00:06:57;8.316667;8.316667;6.633333
77516;PMS7003;68414;53.946;27.634;2023-08-30T00:07:57;10.016666;9.733334;7.283333
77516;PMS7003;68414;53.946;27.634;2023-08-30T00:08:57;9.666667;8.966666;7.116667
77516;PMS7003;68414;53.946;27.634;2023-08-30T00:09:58;10.100000;9.266666;7.083333
77516;PMS7003;68414;53.946;27.634;2023-08-30T00:10:57;8.750000;8.366667;6.983333
77516;PMS7003;68414;53.946;27.634;2023-08-30T00:11:57;9.450000;8.800000;6.700000
77516;PMS7003;68414;53.946;27.634;2023-08-30T00:12:57;8.783334;8.566667;6.450000
77516;PMS7003;68414;53.946;27.634;2023-08-30T00:14:57;8.450000;8.133333;6.083333
77516;PMS7003;68414;53.946;27.634;2023-08-30T00:15:57;9.600000;8.766666;6.900000
77516;PMS7003;68414;53.946;27.634;2023-08-30T00:16:57;10.550000;9.700000;7.216667
77516;PMS7003;68414;53.946;27.634;2023-08-30T00:17:57;9.883333;9.083333;6.933333
77516;PMS7003;68414;53.946;27.634;2023-08-30T00:18:57;9.416667;9.250000;7.333333
77516;PMS7003;68414;53.946;27.634;2023-08-30T00:19:58;10.550000;9.433333;7.266667
77516;PMS7003;68414;53.946;27.634;2023-08-30T00:20:57;10.400000;9.800000;7.616667
77516;PMS7003;68414;53.946;27.634;2023-08-30T00:21:57;10.483334;10.150000;8.050000
77516;PMS7003;68414;53.946;27.634;2023-08-30T00:22:57;11.616667;10.183333;7.933333
77516;PMS7003;68414;53.946;27.634;2023-08-30T00:23:57;10.883333;10.083333;8.150000
77516;PMS7003;68414;53.946;27.634;2023-08-30T00:24:57;11.466666;10.800000;8.700000
77516;PMS7003;68414;53.946;27.634;2023-08-30T00:25:57;11.200000;10.216666;7.716667
77516;PMS7003;68414;53.946;27.634;2023-08-30T00:26:57;9.966666;9.483334;7.200000
77516;PMS7003;68414;53.946;27.634;2023-08-30T00:27:57;12.333333;11.316667;7.650000
77516;PMS7003;68414;53.946;27.634;2023-08-30T00:28:57;10.816667;9.583333;7.850000
77516;PMS7003;68414;53.946;27.634;2023-08-30T00:29:58;11.683333;10.566667;7.933333
77516;PMS7003;68414;53.946;27.634;2023-08-30T00:30:57;9.933333;9.616667;7.316667
77516;PMS7003;68414;53.946;27.634;2023-08-30T00:31:57;12.116667;10.766666;7.766667
77516;PMS7003;68414;53.946;27.634;2023-08-30T00:32:57;11.050000;10.116667;7.666667
77516;PMS7003;68414;53.946;27.634;2023-08-30T00:33:57;11.433333;10.150000;8.183333
77516;PMS7003;68414;53.946;27.634;2023-08-30T00:34:57;10.683333;10.216666;7.966667
77516;PMS7003;68414;53.946;27.634;2023-08-30T00:35:58;10.750000;10.216666;7.500000
77516;PMS7003;68414;53.946;27.634;2023-08-30T00:36:57;9.783334;9.666667;7.483333
77516;PMS7003;68414;53.946;27.634;2023-08-30T00:37:57;10.766666;9.783334;7.700000
77516;PMS7003;68414;53.946;27.634;2023-08-30T00:38:57;8.966666;8.533334;6.983333
77516;PMS7003;68414;53.946;27.634;2023-08-30T00:39:57;10.650000;9.333333;6.766667
77516;PMS7003;68414;53.946;27.634;2023-08-30T00:40:57;10.433333;9.883333;7.183333
77516;PMS7003;68414;53.946;27.634;2023-08-30T00:41:59;11.100000;10.033334;8.266666
77516;PMS7003;68414;53.946;27.634;2023-08-30T00:42:57;11.133333;9.916667;7.833333
77516;PMS7003;68414;53.946;27.634;2023-08-30T00:43:57;11.333333;10.750000;7.700000
77516;PMS7003;68414;53.946;27.634;2023-08-30T00:44:57;11.066667;10.583333;8.100000
77516;PMS7003;68414;53.946;27.634;2023-08-30T00:45:59;10.733334;10.033334;7.800000
77516;PMS7003;68414;53.946;27.634;2023-08-30T00:46:57;10.516666;10.400000;7.250000
77516;PMS7003;68414;53.946;27.634;2023-08-30T00:47:57;10.733334;10.533334;8.216666
77516;PMS7003;68414;53.946;27.634;2023-08-30T00:48:58;11.383333;11.066667;7.850000
77516;PMS7003;68414;53.946;27.634;2023-08-30T00:49:57;10.683333;10.500000;7.550000
77516;PMS7003;68414;53.946;27.634;2023-08-30T00:50:58;12.583333;12.066667;9.033334
77516;PMS7003;68414;53.946;27.634;2023-08-30T00:52:01;11.416667;11.233334;8.083333
77516;PMS7003;68414;53.946;27.634;2023-08-30T00:52:57;10.666667;10.383333;7.683333
77516;PMS7003;68414;53.946;27.634;2023-08-30T00:53:59;12.883333;11.450000;8.283334
77516;PMS7003;68414;53.946;27.634;2023-08-30T00:54:58;14.583333;13.616667;9.866667
77516;PMS7003;68414;53.946;27.634;2023-08-30T00:55:57;14.083333;12.683333;9.533334
77516;PMS7003;68414;53.946;27.634;2023-08-30T00:56:57;11.350000;10.733334;7.883333
77516;PMS7003;68414;53.946;27.634;2023-08-30T00:57:57;13.433333;11.166667;8.283334
77516;PMS7003;68414;53.946;27.634;2023-08-30T00:58:57;13.516666;12.733334;9.200000
77516;PMS7003;68414;53.946;27.634;2023-08-30T00:59:57;12.516666;11.466666;8.100000
77516;PMS7003;68414;53.946;27.634;2023-08-30T01:00:58;11.900000;11.016666;8.750000
77516;PMS7003;68414;53.946;27.634;2023-08-30T01:01:57;14.900000;14.483334;9.066667
77516;PMS7003;68414;53.946;27.634;2023-08-30T01:02:57;11.183333;10.700000;8.200000
77516;PMS7003;68414;53.946;27.634;2023-08-30T01:03:57;12.900000;11.683333;8.500000
77516;PMS7003;68414;53.946;27.634;2023-08-30T01:04:58;13.416667;12.916667;8.716666
77516;PMS7003;68414;53.946;27.634;2023-08-30T01:05:57;13.166667;11.966666;8.583333
77516;PMS7003;68414;53.946;27.634;2023-08-30T01:06:57;14.416667;13.483334;9.550000
77516;PMS7003;68414;53.946;27.634;2023-08-30T01:07:57;13.300000;12.200000;9.050000
77516;PMS7003;68414;53.946;27.634;2023-08-30T01:08:57;14.200000;12.966666;9.200000
77516;PMS7003;68414;53.946;27.634;2023-08-30T01:09:58;13.600000;11.850000;9.350000
77516;PMS7003;68414;53.946;27.634;2023-08-30T01:13:01;12.833333;11.950000;9.300000
77516;PMS7003;68414;53.946;27.634;2023-08-30T01:15:00;13.366667;12.816667;9.633333
77516;PMS7003;68414;53.946;27.634;2023-08-30T01:15:57;13.066667;11.366667;8.483334
77516;PMS7003;68414;53.946;27.634;2023-08-30T01:16:58;14.116667;13.500000;9.650000
77516;PMS7003;68414;53.946;27.634;2023-08-30T01:17:57;13.433333;13.083333;9.733334
77516;PMS7003;68414;53.946;27.634;2023-08-30T01:19:04;12.533334;11.983334;9.100000
77516;PMS7003;68414;53.946;27.634;2023-08-30T01:20:00;13.650000;13.033334;9.766666
77516;PMS7003;68414;53.946;27.634;2023-08-30T01:20:58;14.133333;12.600000;8.583333
77516;PMS7003;68414;53.946;27.634;2023-08-30T01:23:59;14.250000;13.033334;10.150000
77516;PMS7003;68414;53.946;27.634;2023-08-30T01:27:58;14.733334;13.650000;10.566667
77516;PMS7003;68414;53.946;27.634;2023-08-30T01:28:59;15.633333;14.250000;10.533334
77516;PMS7003;68414;53.946;27.634;2023-08-30T01:29:58;13.850000;13.500000;9.666667
77516;PMS7003;68414;53.946;27.634;2023-08-30T01:30:58;13.150000;13.016666;9.833333
77516;PMS7003;68414;53.946;27.634;2023-08-30T01:31:57;14.250000;14.033334;9.833333
77516;PMS7003;68414;53.946;27.634;2023-08-30T01:32:59;14.183333;13.400000;10.000000
77516;PMS7003;68414;53.946;27.634;2023-08-30T01:33:57;14.500000;13.733334;10.150000
77516;PMS7003;68414;53.946;27.634;2023-08-30T01:34:58;13.033334;12.650000;10.100000
77516;PMS7003;68414;53.946;27.634;2023-08-30T01:35:59;13.283334;11.983334;9.733334
77516;PMS7003;68414;53.946;27.634;2023-08-30T01:36:58;15.033334;14.300000;9.233334
77516;PMS7003;68414;53.946;27.634;2023-08-30T01:37:58;16.066668;13.983334;10.183333
77516;PMS7003;68414;53.946;27.634;2023-08-30T01:38:58;13.900000;13.700000;9.866667
77516;PMS7003;68414;53.946;27.634;2023-08-30T01:39:58;16.016666;15.266666;9.966666
77516;PMS7003;68414;53.946;27.634;2023-08-30T01:40:58;16.366667;15.516666;10.300000
77516;PMS7003;68414;53.946;27.634;2023-08-30T01:41:57;14.883333;13.733334;9.966666
77516;PMS7003;68414;53.946;27.634;2023-08-30T01:42:57;15.216666;13.416667;9.816667
77516;PMS7003;68414;53.946;27.634;2023-08-30T01:43:57;14.833333;13.266666;9.683333
77516;PMS7003;68414;53.946;27.634;2023-08-30T01:44:59;15.516666;14.616667;10.066667
77516;PMS7003;68414;53.946;27.634;2023-08-30T01:45:58;13.533334;13.366667;9.950000
77516;PMS7003;68414;53.946;27.634;2023-08-30T01:46:57;16.116667;15.283334;11.516666
77516;PMS7003;68414;53.946;27.634;2023-08-30T01:47:57;16.400000;15.933333;11.250000
77516;PMS7003;68414;53.946;27.634;2023-08-30T01:49:00;16.083334;14.383333;10.866667
77516;PMS7003;68414;53.946;27.634;2023-08-30T01:49:57;17.516666;15.783334;10.916667
77516;PMS7003;68414;53.946;27.634;2023-08-30T01:50:57;16.266666;15.616667;10.666667
77516;PMS7003;68414;53.946;27.634;2023-08-30T01:51:58;16.366667;15.316667;11.900000
77516;PMS7003;68414;53.946;27.634;2023-08-30T01:52:57;16.283333;14.116667;10.816667
77516;PMS7003;68414;53.946;27.634;2023-08-30T01:53:57;17.450001;16.400000;12.116667
77516;PMS7003;68414;53.946;27.634;2023-08-30T01:54:58;16.799999;16.516666;11.033334
77516;PMS7003;68414;53.946;27.634;2023-08-30T01:55:57;18.033333;17.549999;12.333333
77516;PMS7003;68414;53.946;27.634;2023-08-30T01:56:57;15.950000;15.083333;9.616667
77516;PMS7003;68414;53.946;27.634;2023-08-30T01:57:57;15.550000;14.350000;10.966666
77516;PMS7003;68414;53.946;27.634;2023-08-30T01:58:57;15.833333;14.000000;10.433333
77516;PMS7003;68414;53.946;27.634;2023-08-30T01:59:57;16.116667;15.033334;10.750000
77516;PMS7003;68414;53.946;27.634;2023-08-30T02:00:57;14.716666;13.816667;10.000000
77516;PMS7003;68414;53.946;27.634;2023-08-30T02:01:59;18.383333;17.650000;10.700000
77516;PMS7003;68414;53.946;27.634;2023-08-30T02:02:57;15.500000;14.566667;11.100000
77516;PMS7003;68414;53.946;27.634;2023-08-30T02:03:57;15.983334;15.433333;11.166667
77516;PMS7003;68414;53.946;27.634;2023-08-30T02:04:57;15.850000;15.100000;10.816667
77516;PMS7003;68414;53.946;27.634;2023-08-30T02:09:01;18.066668;17.316668;11.750000
77516;PMS7003;68414;53.946;27.634;2023-08-30T02:09:59;15.433333;15.250000;11.450000
77516;PMS7003;68414;53.946;27.634;2023-08-30T02:11:01;16.116667;15.700000;11.083333
77516;PMS7003;68414;53.946;27.634;2023-08-30T02:12:00;16.566668;16.033333;10.933333
77516;PMS7003;68414;53.946;27.634;2023-08-30T02:12:57;15.366667;14.483334;10.566667
77516;PMS7003;68414;53.946;27.634;2023-08-30T02:13:58;15.483334;15.000000;10.566667
77516;PMS7003;68414;53.946;27.634;2023-08-30T02:14:57;16.933332;16.216667;10.933333
77516;PMS7003;68414;53.946;27.634;2023-08-30T02:16:00;17.650000;15.300000;11.466666
77516;PMS7003;68414;53.946;27.634;2023-08-30T02:16:58;16.666666;15.616667;11.300000
77516;PMS7003;68414;53.946;27.634;2023-08-30T02:17:59;17.666666;15.166667;10.500000
77516;PMS7003;68414;53.946;27.634;2023-08-30T02:18:57;15.366667;15.133333;11.083333
77516;PMS7003;68414;53.946;27.634;2023-08-30T02:19:57;16.833334;16.266666;10.733334
77516;PMS7003;68414;53.946;27.634;2023-08-30T02:20:57;14.633333;14.000000;10.200000
77516;PMS7003;68414;53.946;27.634;2023-08-30T02:21:57;15.166667;15.050000;10.700000
77516;PMS7003;68414;53.946;27.634;2023-08-30T02:22:59;17.750000;16.133333;11.716666
77516;PMS7003;68414;53.946;27.634;2023-08-30T02:23:57;15.900000;15.350000;10.750000
77516;PMS7003;68414;53.946;27.634;2023-08-30T02:24:57;17.916666;16.216667;10.966666
77516;PMS7003;68414;53.946;27.634;2023-08-30T02:25:59;15.266666;14.866667;10.350000
77516;PMS7003;68414;53.946;27.634;2023-08-30T02:26:57;15.833333;14.300000;11.166667
77516;PMS7003;68414;53.946;27.634;2023-08-30T02:27:57;14.216666;14.050000;10.916667
77516;PMS7003;68414;53.946;27.634;2023-08-30T02:28:57;16.866667;15.783334;12.000000
77516;PMS7003;68414;53.946;27.634;2023-08-30T02:29:57;17.350000;16.700001;12.183333
77516;PMS7003;68414;53.946;27.634;2023-08-30T02:30:57;17.466667;15.800000;11.033334
77516;PMS7003;68414;53.946;27.634;2023-08-30T02:31:57;17.966667;17.383333;12.950000
77516;PMS7003;68414;53.946;27.634;2023-08-30T02:32:57;15.683333;15.683333;10.533334
77516;PMS7003;68414;53.946;27.634;2023-08-30T02:33:57;16.916666;14.933333;11.500000
77516;PMS7003;68414;53.946;27.634;2023-08-30T02:34:57;15.900000;14.983334;11.466666
77516;PMS7003;68414;53.946;27.634;2023-08-30T02:35:57;15.200000;15.200000;11.483334
77516;PMS7003;68414;53.946;27.634;2023-08-30T02:36:57;17.616667;16.616667;11.650000
77516;PMS7003;68414;53.946;27.634;2023-08-30T02:37:57;16.150000;15.066667;10.600000
77516;PMS7003;68414;53.946;27.634;2023-08-30T02:38:57;16.083334;15.550000;11.216666
77516;PMS7003;68414;53.946;27.634;2023-08-30T02:39:57;16.700001;15.200000;10.916667
77516;PMS7003;68414;53.946;27.634;2023-08-30T02:40:57;17.433332;15.950000;12.150000
77516;PMS7003;68414;53.946;27.634;2023-08-30T02:41:57;14.333333;13.883333;10.266666
77516;PMS7003;68414;53.946;27.634;2023-08-30T02:42:57;16.433332;16.283333;11.583333
77516;PMS7003;68414;53.946;27.634;2023-08-30T02:43:57;16.666666;15.116667;10.516666
77516;PMS7003;68414;53.946;27.634;2023-08-30T02:44:57;16.466667;15.633333;11.016666
77516;PMS7003;68414;53.946;27.634;2023-08-30T02:45:57;17.116667;16.216667;12.016666
77516;PMS7003;68414;53.946;27.634;2023-08-30T02:46:57;15.283334;15.116667;11.333333
77516;PMS7003;68414;53.946;27.634;2023-08-30T02:47:57;16.133333;14.883333;11.316667
77516;PMS7003;68414;53.946;27.634;2023-08-30T02:48:57;17.616667;16.833334;11.133333
77516;PMS7003;68414;53.946;27.634;2023-08-30T02:49:57;17.483334;15.933333;10.900000
77516;PMS7003;68414;53.946;27.634;2023-08-30T02:50:57;18.733334;18.299999;11.916667
77516;PMS7003;68414;53.946;27.634;2023-08-30T02:51:57;16.350000;15.833333;11.450000
77516;PMS7003;68414;53.946;27.634;2023-08-30T02:52:57;17.633333;16.633333;11.300000
77516;PMS7003;68414;53.946;27.634;2023-08-30T02:53:57;19.799999;18.383333;13.033334
77516;PMS7003;68414;53.946;27.634;2023-08-30T02:54:57;17.266666;16.650000;11.216666
77516;PMS7003;68414;53.946;27.634;2023-08-30T02:55:57;17.600000;15.750000;11.750000
77516;PMS7003;68414;53.946;27.634;2023-08-30T02:56:57;17.866667;17.233334;12.083333
77516;PMS7003;68414;53.946;27.634;2023-08-30T02:57:57;18.750000;17.666666;13.416667
77516;PMS7003;68414;53.946;27.634;2023-08-30T02:58:57;18.466667;17.750000;12.783334
77516;PMS7003;68414;53.946;27.634;2023-08-30T02:59:57;19.533333;18.200001;11.333333
77516;PMS7003;68414;53.946;27.634;2023-08-30T03:00:57;18.533333;17.233334;11.733334
77516;PMS7003;68414;53.946;27.634;2023-08-30T03:01:57;15.616667;14.150000;11.050000
77516;PMS7003;68414;53.946;27.634;2023-08-30T03:02:57;15.800000;14.933333;11.083333
77516;PMS7003;68414;53.946;27.634;2023-08-30T03:03:57;16.116667;15.900000;11.733334
77516;PMS7003;68414;53.946;27.634;2023-08-30T03:04:57;25.450001;25.000000;18.049999
77516;PMS7003;68414;53.946;27.634;2023-08-30T03:05:57;16.666666;15.216666;11.816667
77516;PMS7003;68414;53.946;27.634;2023-08-30T03:06:57;15.550000;14.783334;11.283334
77516;PMS7003;68414;53.946;27.634;2023-08-30T03:07:57;15.566667;14.800000;11.483334
77516;PMS7003;68414;53.946;27.634;2023-08-30T03:08:57;17.916666;16.933332;11.800000
77516;PMS7003;68414;53.946;27.634;2023-08-30T03:09:59;14.683333;13.966666;10.183333
77516;PMS7003;68414;53.946;27.634;2023-08-30T03:11:57;17.666666;16.516666;11.516666
77516;PMS7003;68414;53.946;27.634;2023-08-30T03:12:57;16.783333;16.783333;11.383333
77516;PMS7003;68414;53.946;27.634;2023-08-30T03:13:57;18.500000;17.816668;12.333333
77516;PMS7003;68414;53.946;27.634;2023-08-30T03:14:57;18.783333;17.700001;11.100000
77516;PMS7003;68414;53.946;27.634;2023-08-30T03:15:59;17.000000;15.350000;11.600000
77516;PMS7003;68414;53.946;27.634;2023-08-30T03:16:57;15.733334;14.633333;10.233334
77516;PMS7003;68414;53.946;27.634;2023-08-30T03:17:57;19.883333;18.233334;11.166667
77516;PMS7003;68414;53.946;27.634;2023-08-30T03:18:57;15.966666;15.300000;11.850000
77516;PMS7003;68414;53.946;27.634;2023-08-30T03:19:57;15.683333;15.133333;11.116667
77516;PMS7003;68414;53.946;27.634;2023-08-30T03:20:59;17.549999;15.466666;11.033334
77516;PMS7003;68414;53.946;27.634;2023-08-30T03:21:57;19.049999;17.066668;12.300000
77516;PMS7003;68414;53.946;27.634;2023-08-30T03:22:57;18.983334;18.000000;13.350000
77516;PMS7003;68414;53.946;27.634;2023-08-30T03:23:57;19.233334;17.866667;12.083333
77516;PMS7003;68414;53.946;27.634;2023-08-30T03:24:57;18.100000;17.533333;12.283334
77516;PMS7003;68414;53.946;27.634;2023-08-30T03:25:58;18.916666;17.733334;12.483334
77516;PMS7003;68414;53.946;27.634;2023-08-30T03:26:57;18.116667;16.150000;11.983334
77516;PMS7003;68414;53.946;27.634;2023-08-30T03:27:57;16.833334;16.683332;11.516666
77516;PMS7003;68414;53.946;27.634;2023-08-30T03:28:57;16.333334;15.766666;11.516666
77516;PMS7003;68414;53.946;27.634;2023-08-30T03:29:57;16.366667;15.516666;11.100000
77516;PMS7003;68414;53.946;27.634;2023-08-30T03:30:57;16.250000;15.716666;11.300000
77516;PMS7003;68414;53.946;27.634;2023-08-30T03:31:57;17.500000;15.166667;11.016666
77516;PMS7003;68414;53.946;27.634;2023-08-30T03:32:57;16.933332;15.933333;11.516666
77516;PMS7003;68414;53.946;27.634;2023-08-30T03:33:57;17.049999;16.066668;12.100000
77516;PMS7003;68414;53.946;27.634;2023-08-30T03:34:57;18.049999;17.766666;11.683333
77516;PMS7003;68414;53.946;27.634;2023-08-30T03:35:58;15.633333;14.350000;10.483334
77516;PMS7003;68414;53.946;27.634;2023-08-30T03:36:57;14.750000;14.316667;11.183333
77516;PMS7003;68414;53.946;27.634;2023-08-30T03:37:57;16.383333;15.300000;10.500000
77516;PMS7003;68414;53.946;27.634;2023-08-30T03:38:57;16.833334;15.450000;11.700000
77516;PMS7003;68414;53.946;27.634;2023-08-30T03:39:57;16.549999;15.916667;11.400000
77516;PMS7003;68414;53.946;27.634;2023-08-30T03:40:57;17.316668;16.083334;12.466666
77516;PMS7003;68414;53.946;27.634;2023-08-30T03:41:57;18.083334;17.383333;11.750000
77516;PMS7003;68414;53.946;27.634;2023-08-30T03:42:57;17.416666;15.983334;11.783334
77516;PMS7003;68414;53.946;27.634;2023-08-30T03:43:57;17.816668;17.350000;12.666667
77516;PMS7003;68414;53.946;27.634;2023-08-30T03:44:57;15.083333;14.366667;11.466666
77516;PMS7003;68414;53.946;27.634;2023-08-30T03:45:58;19.400000;17.450001;12.233334
77516;PMS7003;68414;53.946;27.634;2023-08-30T03:46:57;16.049999;15.866667;12.150000
77516;PMS7003;68414;53.946;27.634;2023-08-30T03:47:57;18.183332;16.983334;12.266666
77516;PMS7003;68414;53.946;27.634;2023-08-30T03:48:57;16.950001;16.533333;12.566667
77516;PMS7003;68414;53.946;27.634;2023-08-30T03:49:58;17.516666;16.633333;12.833333
77516;PMS7003;68414;53.946;27.634;2023-08-30T03:50:57;20.299999;19.183332;13.650000
77516;PMS7003;68414;53.946;27.634;2023-08-30T03:51:57;18.450001;17.483334;12.166667
77516;PMS7003;68414;53.946;27.634;2023-08-30T03:52:57;18.316668;17.333334;12.116667
77516;PMS7003;68414;53.946;27.634;2023-08-30T03:53:57;19.166666;18.700001;13.066667
77516;PMS7003;68414;53.946;27.634;2023-08-30T03:54:57;19.616667;19.400000;12.500000
77516;PMS7003;68414;53.946;27.634;2023-08-30T03:55:57;17.166666;16.600000;12.016666
77516;PMS7003;68414;53.946;27.634;2023-08-30T03:56:57;16.816668;15.233334;11.800000
77516;PMS7003;68414;53.946;27.634;2023-08-30T03:57:57;18.250000;16.416666;11.666667
77516;PMS7003;68414;53.946;27.634;2023-08-30T03:58:57;18.250000;17.049999;11.700000
77516;PMS7003;68414;53.946;27.634;2023-08-30T03:59:57;18.216667;16.016666;11.400000
77516;PMS7003;68414;53.946;27.634;2023-08-30T04:00:57;21.133333;18.633333;12.633333
77516;PMS7003;68414;53.946;27.634;2023-08-30T04:01:57;18.966667;18.049999;12.950000
77516;PMS7003;68414;53.946;27.634;2023-08-30T04:02:57;19.750000;19.483334;12.900000
77516;PMS7003;68414;53.946;27.634;2023-08-30T04:03:57;17.350000;16.616667;11.733334
77516;PMS7003;68414;53.946;27.634;2023-08-30T04:04:57;17.433332;16.299999;11.850000
77516;PMS7003;68414;53.946;27.634;2023-08-30T04:05:57;15.450000;14.900000;11.083333
77516;PMS7003;68414;53.946;27.634;2023-08-30T04:06:57;19.233334;18.583334;12.733334
77516;PMS7003;68414;53.946;27.634;2023-08-30T04:07:57;20.516666;19.750000;12.833333
77516;PMS7003;68414;53.946;27.634;2023-08-30T04:08:57;19.283333;17.866667;12.800000
77516;PMS7003;68414;53.946;27.634;2023-08-30T04:09:57;20.150000;17.750000;12.633333
77516;PMS7003;68414;53.946;27.634;2023-08-30T04:10:57;17.750000;17.066668;12.466666
77516;PMS7003;68414;53.946;27.634;2023-08-30T04:11:59;20.850000;19.316668;13.133333
77516;PMS7003;68414;53.946;27.634;2023-08-30T04:12:57;19.133333;17.966667;13.566667
77516;PMS7003;68414;53.946;27.634;2023-08-30T04:13:57;20.400000;18.116667;13.016666
77516;PMS7003;68414;53.946;27.634;2023-08-30T04:14:57;18.433332;17.483334;11.766666
77516;PMS7003;68414;53.946;27.634;2023-08-30T04:15:57;19.183332;17.100000;12.433333
77516;PMS7003;68414;53.946;27.634;2023-08-30T04:16:57;18.483334;17.783333;12.583333
77516;PMS7003;68414;53.946;27.634;2023-08-30T04:17:57;20.150000;18.150000;12.983334
77516;PMS7003;68414;53.946;27.634;2023-08-30T04:18:57;18.183332;17.633333;12.166667
77516;PMS7003;68414;53.946;27.634;2023-08-30T04:19:57;19.033333;18.250000;13.066667
77516;PMS7003;68414;53.946;27.634;2023-08-30T04:20:58;17.850000;17.600000;12.233334
77516;PMS7003;68414;53.946;27.634;2023-08-30T04:21:57;19.716667;17.866667;12.500000
77516;PMS7003;68414;53.946;27.634;2023-08-30T04:22:57;18.700001;17.733334;13.100000
77516;PMS7003;68414;53.946;27.634;2023-08-30T04:23:57;18.400000;18.016666;12.000000
77516;PMS7003;68414;53.946;27.634;2023-08-30T04:24:57;21.316668;20.083334;13.250000
77516;PMS7003;68414;53.946;27.634;2023-08-30T04:25:57;21.566668;19.766666;14.316667
77516;PMS7003;68414;53.946;27.634;2023-08-30T04:26:57;18.650000;17.033333;13.000000
77516;PMS7003;68414;53.946;27.634;2023-08-30T04:27:59;19.700001;19.000000;13.400000
77516;PMS7003;68414;53.946;27.634;2023-08-30T04:28:57;20.283333;19.383333;13.433333
77516;PMS7003;68414;53.946;27.634;2023-08-30T04:29:57;17.450001;17.450001;12.583333
77516;PMS7003;68414;53.946;27.634;2023-08-30T04:30:57;17.616667;17.200001;12.800000
77516;PMS7003;68414;53.946;27.634;2023-08-30T04:31:57;18.583334;18.483334;13.400000
77516;PMS7003;68414;53.946;27.634;2023-08-30T04:32:57;20.066668;18.683332;13.350000
77516;PMS7003;68414;53.946;27.634;2023-08-30T04:33:57;18.683332;17.433332;12.816667
77516;PMS7003;68414;53.946;27.634;2023-08-30T04:34:57;20.516666;18.983334;12.850000
77516;PMS7003;68414;53.946;27.634;2023-08-30T04:35:57;21.299999;19.883333;13.100000
77516;PMS7003;68414;53.946;27.634;2023-08-30T04:36:57;22.033333;20.866667;13.516666
77516;PMS7003;68414;53.946;27.634;2023-08-30T04:37:59;21.566668;20.549999;14.616667
77516;PMS7003;68414;53.946;27.634;2023-08-30T04:39:57;25.016666;24.083334;17.350000
77516;PMS7003;68414;53.946;27.634;2023-08-30T04:40:58;20.116667;19.383333;14.116667
77516;PMS7003;68414;53.946;27.634;2023-08-30T04:41:57;21.516666;20.083334;13.966666
77516;PMS7003;68414;53.946;27.634;2023-08-30T04:42:59;20.799999;19.650000;13.766666
77516;PMS7003;68414;53.946;27.634;2023-08-30T04:43:57;19.700001;18.299999;13.516666
77516;PMS7003;68414;53.946;27.634;2023-08-30T04:44:57;20.266666;18.250000;13.233334
77516;PMS7003;68414;53.946;27.634;2023-08-30T04:45:57;22.233334;19.750000;12.933333
77516;PMS7003;68414;53.946;27.634;2023-08-30T04:46:57;23.883333;21.400000;14.150000
77516;PMS7003;68414;53.946;27.634;2023-08-30T04:47:57;21.683332;21.333334;13.683333
77516;PMS7003;68414;53.946;27.634;2023-08-30T04:48:57;19.633333;18.366667;13.316667
77516;PMS7003;68414;53.946;27.634;2023-08-30T04:50:00;24.799999;23.633333;16.533333
77516;PMS7003;68414;53.946;27.634;2023-08-30T04:51:01;23.799999;22.950001;15.750000
77516;PMS7003;68414;53.946;27.634;2023-08-30T04:51:59;24.233334;23.566668;15.816667
77516;PMS7003;68414;53.946;27.634;2023-08-30T04:52:57;22.516666;21.416666;14.516666
77516;PMS7003;68414;53.946;27.634;2023-08-30T04:53:57;21.366667;21.000000;14.800000
77516;PMS7003;68414;53.946;27.634;2023-08-30T04:54:57;19.316668;18.616667;13.850000
77516;PMS7003;68414;53.946;27.634;2023-08-30T04:55:57;23.583334;22.583334;15.516666
77516;PMS7003;68414;53.946;27.634;2023-08-30T04:56:57;24.983334;23.883333;15.283334
77516;PMS7003;68414;53.946;27.634;2023-08-30T04:57:57;23.483334;21.433332;14.350000
77516;PMS7003;68414;53.946;27.634;2023-08-30T04:58:57;23.116667;21.750000;13.850000
77516;PMS7003;68414;53.946;27.634;2023-08-30T04:59:57;24.416666;23.150000;16.533333
77516;PMS7003;68414;53.946;27.634;2023-08-30T05:00:57;26.566668;25.350000;17.799999